Archival Weather

Tahoua

Tahoua, Niger (DRRT)

Report from: Tuesday, June 6, 2023 8:00 AM WAT
Current time: Monday, June 17, 2024 12:10 PM WAT

Current weather – Weather history – Daily summaries
Weather forecast

Temperature33.0°C (91.4°F)
Heat index36.1°C (97.1°F)
Dew point21.0°C (69.8°F)
Winds 12 kts (6.2 m/s, 13.8 mph) Southwest (220°)
Clouds Sky clear
Altimeter29.85 in.Hg (1011 mB)
Relative humidity49 %
Density altitude2,462 ft. (750 m)
Remarks Ceiling and visibility OK
Flight conditions Visual Meteorological Conditions
Raw dataDRRT 060700Z 22012KT CAVOK 33/21 Q1011
An error has occurred. This application may no longer respond until reloaded. Reload 🗙